createdAt,value
2019-02-23T00:02:13.713Z,0.40
2019-02-23T00:04:42.238Z,0.40
2019-02-23T00:07:10.681Z,0.30
2019-02-23T00:09:39.130Z,0.40
2019-02-23T00:12:07.655Z,0.30
2019-02-23T00:14:36.097Z,0.20
2019-02-23T00:17:04.545Z,0.10
2019-02-23T00:19:32.986Z,0.20
2019-02-23T00:22:01.439Z,0.20
2019-02-23T00:24:29.960Z,0.10
2019-02-23T00:26:58.399Z,0.10
2019-02-23T00:29:26.846Z,0.00
2019-02-23T00:31:55.287Z,0.00
2019-02-23T00:34:23.750Z,0.00
2019-02-23T00:36:52.189Z,0.00
2019-02-23T00:39:20.645Z,0.00
2019-02-23T00:41:49.094Z,-0.10
2019-02-23T00:44:17.690Z,-0.20
2019-02-23T00:46:46.132Z,-0.20
2019-02-23T00:49:14.585Z,-0.40
2019-02-23T00:51:43.047Z,-0.60
2019-02-23T00:54:11.495Z,-0.70
2019-02-23T00:56:40.286Z,-0.80
2019-02-23T00:59:08.734Z,-0.90
2019-02-23T01:01:37.173Z,-0.80
2019-02-23T01:04:05.700Z,-0.80
2019-02-23T01:06:34.145Z,-0.90
2019-02-23T01:09:02.618Z,-0.90
2019-02-23T01:11:31.050Z,-0.90
2019-02-23T01:13:59.511Z,-0.90
2019-02-23T01:16:27.954Z,-0.90
2019-02-23T01:18:56.412Z,-0.90
2019-02-23T01:21:24.866Z,-0.90
2019-02-23T01:23:53.307Z,-0.80
2019-02-23T01:26:21.767Z,-0.90
2019-02-23T01:28:50.210Z,-0.90
2019-02-23T01:31:18.680Z,-0.90
2019-02-23T01:33:47.139Z,-1.00
2019-02-23T01:36:15.579Z,-1.20
2019-02-23T01:38:44.057Z,-1.30
2019-02-23T01:41:12.582Z,-1.30
2019-02-23T01:43:41.030Z,-1.30
2019-02-23T01:46:09.497Z,-1.30
2019-02-23T01:48:37.958Z,-1.40
2019-02-23T01:51:06.562Z,-1.40
2019-02-23T01:53:35.082Z,-1.40
2019-02-23T01:56:03.608Z,-1.40
2019-02-23T01:58:32.069Z,-1.40
2019-02-23T02:01:00.666Z,-1.50
2019-02-23T02:03:29.467Z,-1.50
2019-02-23T02:05:57.989Z,-1.50
2019-02-23T02:08:26.432Z,-1.50
2019-02-23T02:10:54.911Z,-1.50
2019-02-23T02:13:23.358Z,-1.70
2019-02-23T02:15:52.019Z,-1.80
2019-02-23T02:18:20.530Z,-2.00
2019-02-23T02:20:49.043Z,-2.00
2019-02-23T02:23:17.561Z,-2.00
2019-02-23T02:25:46.025Z,-2.00
2019-02-23T02:28:14.488Z,-2.00
2019-02-23T02:30:47.263Z,-1.90
2019-02-23T02:33:15.783Z,-2.00
2019-02-23T02:35:44.310Z,-1.90
2019-02-23T02:38:12.832Z,-1.90
2019-02-23T02:40:41.290Z,-1.90
2019-02-23T02:43:09.749Z,-1.90
2019-02-23T02:45:38.195Z,-2.00
2019-02-23T02:48:06.656Z,-2.00
2019-02-23T02:50:35.102Z,-2.10
2019-02-23T02:53:03.581Z,-2.20
2019-02-23T02:55:32.178Z,-2.20
2019-02-23T02:58:00.631Z,-2.20
2019-02-23T03:00:29.278Z,-2.20
2019-02-23T03:02:57.726Z,-2.20
2019-02-23T03:05:26.260Z,-2.30
2019-02-23T03:07:54.714Z,-2.30
2019-02-23T03:10:23.180Z,-2.30
2019-02-23T03:12:51.735Z,-2.20
2019-02-23T03:15:20.190Z,-2.50
2019-02-23T03:17:48.704Z,-2.40
2019-02-23T03:20:17.167Z,-2.50
2019-02-23T03:22:45.634Z,-2.40
2019-02-23T03:25:14.092Z,-2.50
2019-02-23T03:27:42.546Z,-2.40
2019-02-23T03:30:11.859Z,-2.40
2019-02-23T03:32:40.572Z,-2.50
2019-02-23T03:35:09.243Z,-2.50
2019-02-23T03:37:37.759Z,-2.50
2019-02-23T03:40:08.065Z,-2.70
2019-02-23T03:42:36.781Z,-2.80
2019-02-23T03:45:05.873Z,-2.90
2019-02-23T03:47:34.338Z,-2.90
2019-02-23T03:50:02.854Z,-2.90
2019-02-23T03:52:31.323Z,-2.90
2019-02-23T03:54:59.842Z,-3.00
2019-02-23T03:57:28.373Z,-3.10
2019-02-23T03:59:56.919Z,-3.10
2019-02-23T04:02:25.382Z,-3.20
2019-02-23T04:04:53.887Z,-3.20
2019-02-23T04:07:22.431Z,-3.10
2019-02-23T04:09:50.889Z,-3.10
2019-02-23T04:12:19.397Z,-3.10
2019-02-23T04:14:47.930Z,-3.10
2019-02-23T04:17:16.375Z,-3.10
2019-02-23T04:19:44.838Z,-3.00
2019-02-23T04:22:13.290Z,-3.10
2019-02-23T04:24:41.750Z,-3.10
2019-02-23T04:27:10.214Z,-3.10
2019-02-23T04:29:38.734Z,-3.20
2019-02-23T04:32:07.191Z,-3.30
2019-02-23T04:34:35.722Z,-3.20
2019-02-23T04:37:04.254Z,-3.30
2019-02-23T04:39:32.705Z,-3.30
2019-02-23T04:42:01.152Z,-3.40
2019-02-23T04:44:29.614Z,-3.40
2019-02-23T04:46:58.058Z,-3.50
2019-02-23T04:49:26.502Z,-3.50
2019-02-23T04:51:54.964Z,-3.70
2019-02-23T04:54:23.487Z,-3.90
2019-02-23T04:56:51.946Z,-4.00
2019-02-23T04:59:20.397Z,-4.10
2019-02-23T05:01:48.934Z,-4.10
2019-02-23T05:04:17.386Z,-4.00
2019-02-23T05:06:45.838Z,-4.10
2019-02-23T05:09:14.299Z,-4.20
2019-02-23T05:11:42.762Z,-4.20
2019-02-23T05:14:11.210Z,-4.10
2019-02-23T05:16:39.666Z,-4.00
2019-02-23T05:19:08.114Z,-4.00
2019-02-23T05:21:36.582Z,-3.90
2019-02-23T05:24:05.041Z,-3.80
2019-02-23T05:26:33.503Z,-3.80
2019-02-23T05:29:02.304Z,-3.70
2019-02-23T05:31:30.851Z,-3.70
2019-02-23T05:33:59.306Z,-3.70
2019-02-23T05:36:27.767Z,-3.70
2019-02-23T05:38:56.213Z,-3.70
2019-02-23T05:41:24.687Z,-3.80
2019-02-23T05:43:53.203Z,-3.90
2019-02-23T05:46:21.738Z,-3.90
2019-02-23T05:48:50.206Z,-4.00
2019-02-23T05:51:18.674Z,-4.00
2019-02-23T05:53:47.208Z,-4.10
2019-02-23T05:56:16.415Z,-4.30
2019-02-23T05:58:45.060Z,-4.40
2019-02-23T06:01:13.594Z,-4.30
2019-02-23T06:03:42.029Z,-4.50
2019-02-23T06:06:10.745Z,-4.40
2019-02-23T06:08:39.278Z,-4.40
2019-02-23T06:11:07.739Z,-4.40
2019-02-23T06:13:36.193Z,-4.40
2019-02-23T06:16:04.708Z,-4.30
2019-02-23T06:18:33.166Z,-4.20
2019-02-23T06:21:01.618Z,-4.20
2019-02-23T06:23:30.156Z,-4.10
2019-02-23T06:25:58.590Z,-4.10
2019-02-23T06:28:27.053Z,-4.10
2019-02-23T06:30:55.577Z,-4.20
2019-02-23T06:33:24.038Z,-4.00
2019-02-23T06:35:52.777Z,-3.90
2019-02-23T06:38:21.221Z,-3.90
2019-02-23T06:40:49.677Z,-3.80
2019-02-23T06:43:18.122Z,-3.70
2019-02-23T06:45:46.583Z,-3.60
2019-02-23T06:48:15.058Z,-3.40
2019-02-23T06:50:43.503Z,-3.30
2019-02-23T06:53:12.289Z,-3.10
2019-02-23T06:55:40.810Z,-3.00
2019-02-23T06:58:09.258Z,-2.90
2019-02-23T07:00:37.789Z,-3.00
2019-02-23T07:03:06.253Z,-3.00
2019-02-23T07:05:34.715Z,-3.00
2019-02-23T07:08:03.303Z,-3.00
2019-02-23T07:10:31.765Z,-3.00
2019-02-23T07:13:00.210Z,-3.00
2019-02-23T07:15:28.730Z,-2.90
2019-02-23T07:17:57.261Z,-2.80
2019-02-23T07:20:25.706Z,-2.70
2019-02-23T07:22:54.173Z,-2.60
2019-02-23T07:25:22.690Z,-2.50
2019-02-23T07:27:51.149Z,-2.40
2019-02-23T07:30:19.662Z,-2.20
2019-02-23T07:32:48.114Z,-2.10
2019-02-23T07:35:16.570Z,-2.00
2019-02-23T07:37:45.019Z,-1.90
2019-02-23T07:40:15.228Z,-1.90
2019-02-23T07:42:43.746Z,-1.80
2019-02-23T07:45:12.356Z,-1.60
2019-02-23T07:47:40.875Z,-1.50
2019-02-23T07:50:12.718Z,-1.50
2019-02-23T07:52:41.208Z,-1.40
2019-02-23T07:55:10.004Z,-1.40
2019-02-23T07:57:38.477Z,-1.30
2019-02-23T08:00:12.190Z,-1.20
2019-02-23T08:02:40.645Z,-1.00
2019-02-23T08:05:10.198Z,-1.00
2019-02-23T08:07:39.893Z,-1.00
2019-02-23T08:10:11.023Z,-0.90
2019-02-23T08:12:39.473Z,-0.90
2019-02-23T08:15:10.086Z,-0.80
2019-02-23T08:17:38.531Z,-0.80
2019-02-23T08:20:10.399Z,-0.70
2019-02-23T08:22:40.161Z,-0.60
2019-02-23T08:25:13.366Z,-0.50
2019-02-23T08:27:41.897Z,-0.40
2019-02-23T08:30:17.976Z,-0.30
2019-02-23T08:32:46.406Z,-0.20
2019-02-23T08:35:14.868Z,-0.10
2019-02-23T08:37:43.383Z,-0.10
2019-02-23T08:40:14.749Z,0.00
2019-02-23T08:42:43.249Z,0.10
2019-02-23T08:45:11.934Z,0.20
2019-02-23T08:47:40.462Z,0.30
2019-02-23T08:50:14.049Z,0.40
2019-02-23T08:52:49.371Z,0.50
2019-02-23T08:55:12.806Z,0.60
2019-02-23T08:57:41.329Z,0.70
2019-02-23T09:00:12.811Z,0.80
2019-02-23T09:02:41.266Z,0.90
2019-02-23T09:05:10.954Z,1.00
2019-02-23T09:07:39.466Z,1.10
2019-02-23T09:10:10.553Z,1.10
2019-02-23T09:12:38.999Z,1.10
2019-02-23T09:15:08.887Z,1.30
2019-02-23T09:17:37.332Z,1.40
2019-02-23T09:20:10.603Z,1.50
2019-02-23T09:22:39.047Z,1.60
2019-02-23T09:25:10.074Z,1.60
2019-02-23T09:27:38.581Z,1.60
2019-02-23T09:30:12.169Z,1.80
2019-02-23T09:32:40.691Z,1.90
2019-02-23T09:35:09.743Z,1.90
2019-02-23T09:37:38.324Z,1.90
2019-02-23T09:40:10.249Z,2.10
2019-02-23T09:42:38.753Z,2.00
2019-02-23T09:45:10.076Z,2.10
2019-02-23T09:47:40.075Z,2.20
2019-02-23T09:50:08.666Z,2.30
2019-02-23T09:52:37.114Z,2.40
2019-02-23T09:55:06.944Z,2.50
2019-02-23T09:57:35.391Z,2.60
2019-02-23T10:00:05.145Z,2.50
2019-02-23T10:02:33.606Z,2.40
2019-02-23T10:05:02.054Z,2.50
2019-02-23T10:07:30.581Z,2.60
2019-02-23T10:09:59.021Z,2.70
2019-02-23T10:12:27.470Z,2.70
2019-02-23T10:14:55.910Z,2.80
2019-02-23T10:17:24.377Z,2.90
2019-02-23T10:19:52.902Z,2.90
2019-02-23T10:22:21.362Z,2.90
2019-02-23T10:24:49.816Z,3.00
2019-02-23T10:27:18.269Z,3.00
2019-02-23T10:29:46.733Z,3.20
2019-02-23T10:32:15.182Z,3.20
2019-02-23T10:34:43.628Z,3.40
2019-02-23T10:37:12.152Z,3.30
2019-02-23T10:39:40.602Z,3.50
2019-02-23T10:42:09.039Z,3.40
2019-02-23T10:44:37.490Z,3.40
2019-02-23T10:47:05.938Z,3.50
2019-02-23T10:49:34.398Z,3.80
2019-02-23T10:52:02.842Z,3.80
2019-02-23T10:54:31.282Z,3.90
2019-02-23T10:56:59.734Z,3.90
2019-02-23T10:59:28.170Z,4.00
2019-02-23T11:01:56.636Z,4.00
2019-02-23T11:04:25.069Z,4.00
2019-02-23T11:06:53.572Z,4.00
2019-02-23T11:09:23.727Z,4.00
2019-02-23T11:11:52.245Z,3.90
2019-02-23T11:14:20.701Z,4.00
2019-02-23T11:16:49.406Z,4.00
2019-02-23T11:19:17.939Z,4.10
2019-02-23T11:21:46.390Z,4.20
2019-02-23T11:24:14.823Z,4.30
2019-02-23T11:26:43.270Z,4.30
2019-02-23T11:29:11.705Z,4.30
2019-02-23T11:31:40.162Z,4.20
2019-02-23T11:34:08.600Z,4.00
2019-02-23T11:36:37.054Z,4.20
2019-02-23T11:39:05.581Z,4.10
2019-02-23T11:41:34.032Z,4.10
2019-02-23T11:44:02.466Z,4.10
2019-02-23T11:46:30.906Z,4.00
2019-02-23T11:48:59.367Z,4.10
2019-02-23T11:51:27.812Z,4.30
2019-02-23T11:53:56.343Z,4.40
2019-02-23T11:56:24.770Z,4.40
2019-02-23T11:58:53.210Z,4.60
2019-02-23T12:01:21.734Z,4.60
2019-02-23T12:03:50.174Z,4.80
2019-02-23T12:06:18.631Z,4.90
2019-02-23T12:08:47.151Z,4.80
2019-02-23T12:11:15.613Z,4.70
2019-02-23T12:13:44.050Z,4.70
2019-02-23T12:16:12.574Z,4.90
2019-02-23T12:18:41.022Z,4.90
2019-02-23T12:21:09.457Z,5.00
2019-02-23T12:23:37.910Z,4.80
2019-02-23T12:26:06.348Z,5.10
2019-02-23T12:28:34.793Z,5.20
2019-02-23T12:31:03.250Z,5.30
2019-02-23T12:33:31.689Z,5.10
2019-02-23T12:36:00.138Z,5.00
2019-02-23T12:38:28.575Z,5.00
2019-02-23T12:40:57.102Z,5.00
2019-02-23T12:43:25.537Z,5.10
2019-02-23T12:45:53.991Z,5.10
2019-02-23T12:48:23.711Z,5.10
2019-02-23T12:50:52.146Z,5.40
2019-02-23T12:53:20.598Z,5.40
2019-02-23T12:55:49.037Z,5.40
2019-02-23T12:58:17.498Z,5.10
2019-02-23T13:00:45.945Z,5.10
2019-02-23T13:03:14.397Z,5.30
2019-02-23T13:05:42.850Z,5.20
2019-02-23T13:08:11.290Z,5.40
2019-02-23T13:10:39.743Z,5.50
2019-02-23T13:13:26.271Z,5.40
2019-02-23T13:16:12.839Z,5.40
2019-02-23T13:18:52.698Z,5.60
2019-02-23T13:21:24.222Z,5.70
2019-02-23T13:24:01.400Z,5.60
2019-02-23T13:26:52.772Z,5.50
2019-02-23T13:29:30.026Z,5.70
2019-02-23T13:32:01.607Z,5.70
2019-02-23T13:34:45.522Z,5.60
2019-02-23T13:37:38.468Z,5.40
2019-02-23T13:40:15.958Z,5.40
2019-02-23T13:42:50.550Z,5.10
2019-02-23T13:45:28.077Z,5.30
2019-02-23T13:48:31.302Z,5.20
2019-02-23T13:51:14.882Z,5.30
2019-02-23T13:54:10.507Z,5.10
2019-02-23T13:56:42.047Z,5.10
2019-02-23T13:59:22.247Z,5.20
2019-02-23T14:02:05.818Z,5.20
2019-02-23T14:04:48.658Z,5.00
2019-02-23T14:07:35.938Z,5.10
2019-02-23T14:10:10.190Z,5.20
2019-02-23T14:12:54.073Z,5.00
2019-02-23T14:15:40.545Z,5.00
2019-02-23T14:18:21.102Z,4.90
2019-02-23T14:21:10.448Z,5.00
2019-02-23T14:24:06.102Z,5.10
2019-02-23T14:26:37.637Z,5.10
2019-02-23T14:29:21.258Z,5.00
2019-02-23T14:31:52.791Z,4.80
2019-02-23T14:34:24.305Z,4.40
2019-02-23T14:37:08.110Z,4.30
2019-02-23T14:39:51.004Z,4.30
2019-02-23T14:42:34.134Z,4.30
2019-02-23T14:45:17.696Z,4.40
2019-02-23T14:48:04.326Z,4.40
2019-02-23T14:50:44.920Z,4.50
2019-02-23T14:53:48.397Z,4.40
2019-02-23T14:56:42.666Z,4.30
2019-02-23T14:59:19.615Z,4.20
2019-02-23T15:01:56.802Z,4.20
2019-02-23T15:04:55.534Z,4.00
2019-02-23T15:07:29.507Z,3.90
2019-02-23T15:10:34.974Z,3.90
2019-02-23T15:13:36.737Z,3.90
2019-02-23T15:16:19.810Z,3.90
2019-02-23T15:19:05.737Z,3.70
2019-02-23T15:21:55.191Z,3.60
2019-02-23T15:24:32.154Z,3.40
2019-02-23T15:27:21.085Z,3.30
2019-02-23T15:29:52.610Z,3.30
2019-02-23T15:32:36.070Z,3.30
2019-02-23T15:35:19.613Z,3.20
2019-02-23T15:38:03.394Z,3.10
2019-02-23T15:41:09.586Z,2.90
2019-02-23T15:44:00.683Z,2.80
2019-02-23T15:46:37.939Z,2.70
2019-02-23T15:49:29.679Z,2.60
2019-02-23T15:51:58.696Z,2.60
2019-02-23T15:54:29.247Z,2.50
2019-02-23T15:56:57.521Z,2.40
2019-02-23T15:59:26.298Z,2.30
2019-02-23T16:01:54.750Z,2.30
2019-02-23T16:04:23.254Z,2.10
2019-02-23T16:06:51.710Z,2.00
2019-02-23T16:09:20.259Z,1.80
2019-02-23T16:11:48.695Z,1.70
2019-02-23T16:14:17.174Z,1.60
2019-02-23T16:16:47.485Z,1.50
2019-02-23T16:19:16.073Z,1.40
2019-02-23T16:21:44.510Z,1.20
2019-02-23T16:24:12.966Z,1.10
2019-02-23T16:26:41.470Z,1.00
2019-02-23T16:29:10.070Z,0.90
2019-02-23T16:31:38.656Z,0.90
2019-02-23T16:34:07.447Z,0.80
2019-02-23T16:36:36.228Z,0.80
2019-02-23T16:39:08.514Z,0.70
2019-02-23T16:41:36.962Z,0.60
2019-02-23T16:44:05.402Z,0.50
2019-02-23T16:46:33.858Z,0.30
2019-02-23T16:49:02.294Z,0.30
2019-02-23T16:51:30.780Z,0.20
2019-02-23T16:53:59.303Z,0.10
2019-02-23T16:56:27.739Z,0.00
2019-02-23T16:58:56.168Z,0.00
2019-02-23T17:01:24.624Z,0.00
2019-02-23T17:03:53.078Z,0.00
2019-02-23T17:06:21.535Z,-0.10
2019-02-23T17:08:50.203Z,-0.20
2019-02-23T17:11:18.664Z,-0.30
2019-02-23T17:13:47.314Z,-0.20
2019-02-23T17:16:15.823Z,-0.30
2019-02-23T17:18:44.279Z,-0.40
2019-02-23T17:21:12.832Z,-0.40
2019-02-23T17:23:41.258Z,-0.40
2019-02-23T17:26:09.778Z,-0.40
2019-02-23T17:28:38.227Z,-0.40
2019-02-23T17:31:06.850Z,-0.40
2019-02-23T17:33:35.525Z,-0.50
2019-02-23T17:36:03.973Z,-0.60
2019-02-23T17:38:32.505Z,-0.70
2019-02-23T17:41:01.040Z,-0.80
2019-02-23T17:43:29.475Z,-0.80
2019-02-23T17:45:58.010Z,-0.80
2019-02-23T17:48:26.466Z,-0.90
2019-02-23T17:50:55.002Z,-0.90
2019-02-23T17:53:23.450Z,-0.90
2019-02-23T17:55:51.901Z,-0.90
2019-02-23T17:58:20.358Z,-1.00
2019-02-23T18:00:48.887Z,-0.90
2019-02-23T18:03:17.327Z,-0.90
2019-02-23T18:05:45.787Z,-1.00
2019-02-23T18:08:14.242Z,-1.00
2019-02-23T18:10:42.693Z,-1.00
2019-02-23T18:13:12.014Z,-1.10
2019-02-23T18:15:40.650Z,-1.20
2019-02-23T18:18:09.202Z,-1.20
2019-02-23T18:20:37.654Z,-1.20
2019-02-23T18:23:06.116Z,-1.20
2019-02-23T18:25:34.591Z,-1.20
2019-02-23T18:28:03.161Z,-1.30
2019-02-23T18:30:31.662Z,-1.30
2019-02-23T18:33:00.106Z,-1.40
2019-02-23T18:35:28.557Z,-1.40
2019-02-23T18:37:57.032Z,-1.50
2019-02-23T18:40:25.542Z,-1.50
2019-02-23T18:42:54.002Z,-1.40
2019-02-23T18:45:22.446Z,-1.50
2019-02-23T18:47:50.942Z,-1.50
2019-02-23T18:50:19.438Z,-1.60
2019-02-23T18:52:47.970Z,-1.50
2019-02-23T18:55:16.426Z,-1.50
2019-02-23T18:57:45.132Z,-1.50
2019-02-23T19:00:13.707Z,-1.60
2019-02-23T19:02:42.146Z,-1.70
2019-02-23T19:05:12.246Z,-1.70
2019-02-23T19:07:40.754Z,-1.70
2019-02-23T19:10:11.850Z,-1.80
2019-02-23T19:12:40.306Z,-1.80
2019-02-23T19:15:13.402Z,-1.80
2019-02-23T19:17:41.863Z,-1.80
2019-02-23T19:20:14.840Z,-2.00
2019-02-23T19:22:43.764Z,-2.20
2019-02-23T19:25:12.237Z,-2.20
2019-02-23T19:27:40.972Z,-2.30
2019-02-23T19:30:14.108Z,-2.30
2019-02-23T19:32:42.589Z,-2.20
2019-02-23T19:35:11.114Z,-2.20
2019-02-23T19:37:39.563Z,-2.10
2019-02-23T19:40:09.414Z,-2.10
2019-02-23T19:42:37.926Z,-2.20
2019-02-23T19:45:10.733Z,-2.20
2019-02-23T19:47:41.333Z,-2.30
2019-02-23T19:50:13.116Z,-2.50
2019-02-23T19:52:41.584Z,-2.60
2019-02-23T19:55:13.282Z,-2.70
2019-02-23T19:57:41.731Z,-2.70
2019-02-23T20:00:10.426Z,-2.60
2019-02-23T20:02:38.955Z,-2.70
2019-02-23T20:05:09.244Z,-2.70
2019-02-23T20:07:37.770Z,-2.70
2019-02-23T20:10:08.670Z,-2.80
2019-02-23T20:12:37.117Z,-2.80
2019-02-23T20:15:07.823Z,-2.80
2019-02-23T20:17:36.281Z,-2.90
2019-02-23T20:20:06.069Z,-2.80
2019-02-23T20:22:34.534Z,-2.90
2019-02-23T20:25:03.050Z,-2.80
2019-02-23T20:27:31.513Z,-2.80
2019-02-23T20:29:59.975Z,-2.80
2019-02-23T20:32:28.678Z,-2.80
2019-02-23T20:34:57.138Z,-2.80
2019-02-23T20:37:26.011Z,-2.90
2019-02-23T20:39:54.517Z,-2.90
2019-02-23T20:42:23.039Z,-2.90
2019-02-23T20:44:51.502Z,-3.00
2019-02-23T20:47:19.992Z,-3.10
2019-02-23T20:49:50.184Z,-3.10
2019-02-23T20:52:18.657Z,-3.20
2019-02-23T20:54:47.205Z,-3.30
2019-02-23T20:57:15.721Z,-3.40
2019-02-23T20:59:44.173Z,-3.30
2019-02-23T21:02:12.699Z,-3.40
2019-02-23T21:04:41.146Z,-3.40
2019-02-23T21:07:09.586Z,-3.50
2019-02-23T21:09:38.129Z,-3.60
2019-02-23T21:12:06.571Z,-3.80
2019-02-23T21:14:35.030Z,-4.00
2019-02-23T21:17:03.470Z,-4.10
2019-02-23T21:19:31.938Z,-4.10
2019-02-23T21:22:00.376Z,-4.00
2019-02-23T21:24:28.839Z,-3.90
2019-02-23T21:26:57.306Z,-4.00
2019-02-23T21:29:25.753Z,-4.00
2019-02-23T21:31:54.601Z,-4.10
2019-02-23T21:34:23.046Z,-4.00
2019-02-23T21:36:51.494Z,-4.00
2019-02-23T21:39:19.957Z,-3.90
2019-02-23T21:41:48.434Z,-3.90
2019-02-23T21:44:16.956Z,-3.90
2019-02-23T21:46:45.401Z,-3.90
2019-02-23T21:49:13.866Z,-4.00
2019-02-23T21:51:42.309Z,-4.10
2019-02-23T21:54:11.430Z,-4.00
2019-02-23T21:56:40.027Z,-4.10
2019-02-23T21:59:08.543Z,-4.10
2019-02-23T22:01:37.005Z,-4.10
2019-02-23T22:04:05.457Z,-4.10
2019-02-23T22:06:34.055Z,-4.10
2019-02-23T22:09:02.552Z,-4.20
2019-02-23T22:11:31.074Z,-4.30
2019-02-23T22:13:59.598Z,-4.40
2019-02-23T22:16:28.059Z,-4.50
2019-02-23T22:18:56.520Z,-4.30
2019-02-23T22:21:24.967Z,-4.30
2019-02-23T22:23:53.500Z,-4.40
2019-02-23T22:26:22.023Z,-4.50
2019-02-23T22:28:50.509Z,-4.40
2019-02-23T22:31:19.019Z,-4.50
2019-02-23T22:33:47.470Z,-4.60
2019-02-23T22:36:15.950Z,-4.70
2019-02-23T22:38:44.462Z,-4.80
2019-02-23T22:41:12.925Z,-4.80
2019-02-23T22:43:41.442Z,-4.80
2019-02-23T22:46:09.934Z,-4.80
2019-02-23T22:48:38.398Z,-4.80
2019-02-23T22:51:06.842Z,-4.70
2019-02-23T22:53:35.297Z,-4.70
2019-02-23T22:56:03.754Z,-4.60
2019-02-23T22:58:32.290Z,-4.70
2019-02-23T23:01:04.263Z,-4.70
2019-02-23T23:03:32.730Z,-4.80
2019-02-23T23:06:01.262Z,-4.80
2019-02-23T23:08:29.777Z,-4.80
2019-02-23T23:10:58.234Z,-4.80
2019-02-23T23:13:26.698Z,-4.90
2019-02-23T23:15:55.231Z,-4.80
2019-02-23T23:18:23.690Z,-4.90
2019-02-23T23:20:52.154Z,-4.80
2019-02-23T23:23:20.614Z,-4.90
2019-02-23T23:25:49.134Z,-5.00
2019-02-23T23:28:17.597Z,-5.20
2019-02-23T23:30:46.054Z,-5.30
2019-02-23T23:33:14.526Z,-5.30
2019-02-23T23:35:42.970Z,-5.40
2019-02-23T23:38:11.486Z,-5.30
2019-02-23T23:40:39.935Z,-5.20
2019-02-23T23:43:08.374Z,-5.10
2019-02-23T23:45:36.906Z,-5.10
2019-02-23T23:48:05.354Z,-5.00
2019-02-23T23:50:33.806Z,-5.00
2019-02-23T23:53:02.255Z,-5.00
2019-02-23T23:55:30.732Z,-5.10
2019-02-23T23:57:59.192Z,-5.40
